createdAt,value
2022-08-05T00:00:16.518Z,22.10
2022-08-05T00:02:50.648Z,22.10
2022-08-05T00:06:03.279Z,22.10
2022-08-05T00:08:34.157Z,22.10
2022-08-05T00:11:00.533Z,22.10
2022-08-05T00:13:38.829Z,22.10
2022-08-05T00:16:12.126Z,22.00
2022-08-05T00:18:42.470Z,22.00
2022-08-05T00:21:12.657Z,22.00
2022-08-05T00:23:53.377Z,22.00
2022-08-05T00:26:31.358Z,22.00
2022-08-05T00:28:58.768Z,22.00
2022-08-05T00:31:54.400Z,22.00
2022-08-05T00:34:55.856Z,22.00
2022-08-05T00:37:10.923Z,21.90
2022-08-05T00:39:57.187Z,21.90
2022-08-05T00:42:38.049Z,21.90
2022-08-05T00:45:11.450Z,21.90
2022-08-05T00:47:53.075Z,22.00
2022-08-05T00:50:25.299Z,21.90
2022-08-05T00:52:54.934Z,21.90
2022-08-05T00:55:23.229Z,21.90
2022-08-05T00:58:01.597Z,21.90
2022-08-05T01:00:31.999Z,21.80
2022-08-05T01:03:01.043Z,21.80
2022-08-05T01:05:28.546Z,21.80
2022-08-05T01:08:30.291Z,21.80
2022-08-05T01:11:22.258Z,21.70
2022-08-05T01:14:11.722Z,21.60
2022-08-05T01:17:05.350Z,21.60
2022-08-05T01:20:00.894Z,21.50
2022-08-05T01:22:42.771Z,21.50
2022-08-05T01:25:53.796Z,21.50
2022-08-05T01:28:50.318Z,21.60
2022-08-05T01:31:58.638Z,21.60
2022-08-05T01:34:35.894Z,21.50
2022-08-05T01:37:25.049Z,21.50
2022-08-05T01:39:58.722Z,21.50
2022-08-05T01:42:28.199Z,21.40
2022-08-05T01:45:02.274Z,21.40
2022-08-05T01:47:39.568Z,21.40
2022-08-05T01:50:28.529Z,21.30
2022-08-05T01:53:04.925Z,21.30
2022-08-05T01:55:36.158Z,21.20
2022-08-05T01:58:11.542Z,21.20
2022-08-05T02:00:49.971Z,21.10
2022-08-05T02:03:42.054Z,21.10
2022-08-05T02:06:33.275Z,21.00
2022-08-05T02:08:59.378Z,20.90
2022-08-05T02:11:34.088Z,21.00
2022-08-05T02:14:49.593Z,20.90
2022-08-05T02:18:31.653Z,20.90
2022-08-05T02:20:28.333Z,20.90
2022-08-05T02:23:00.001Z,20.80
2022-08-05T02:25:35.975Z,20.80
2022-08-05T02:28:32.993Z,20.80
2022-08-05T02:31:16.622Z,20.80
2022-08-05T02:33:57.759Z,20.80
2022-08-05T02:36:27.495Z,20.80
2022-08-05T02:38:57.757Z,20.70
2022-08-05T02:41:28.576Z,20.70
2022-08-05T02:44:12.184Z,20.70
2022-08-05T02:46:58.331Z,20.70
2022-08-05T02:49:36.751Z,20.60
2022-08-05T02:52:09.931Z,20.60
2022-08-05T02:54:42.271Z,20.60
2022-08-05T02:58:11.079Z,20.60
2022-08-05T03:00:02.763Z,20.60
2022-08-05T03:02:36.937Z,20.50
2022-08-05T03:05:08.377Z,20.50
2022-08-05T03:08:00.612Z,20.50
2022-08-05T03:10:26.082Z,20.50
2022-08-05T03:15:23.306Z,20.40
2022-08-05T03:17:56.040Z,20.40
2022-08-05T03:20:25.040Z,20.40
2022-08-05T03:22:53.349Z,20.40
2022-08-05T03:25:32.612Z,20.30
2022-08-05T03:28:14.099Z,20.30
2022-08-05T03:30:42.245Z,20.30
2022-08-05T03:33:09.671Z,20.30
2022-08-05T03:35:40.447Z,20.30
2022-08-05T03:38:08.874Z,20.30
2022-08-05T03:40:40.291Z,20.30
2022-08-05T03:43:58.663Z,20.30
2022-08-05T03:45:55.251Z,20.30
2022-08-05T03:48:29.025Z,20.30
2022-08-05T03:52:38.007Z,20.30
2022-08-05T03:55:53.560Z,20.30
2022-08-05T03:57:41.641Z,20.30
2022-08-05T04:00:15.503Z,20.20
2022-08-05T04:02:58.154Z,20.20
2022-08-05T04:05:33.644Z,20.20
2022-08-05T04:08:05.504Z,20.10
2022-08-05T04:10:37.988Z,20.10
2022-08-05T04:13:07.278Z,20.10
2022-08-05T04:15:36.298Z,20.00
2022-08-05T04:18:06.755Z,20.00
2022-08-05T04:20:34.976Z,20.00
2022-08-05T04:23:01.984Z,20.00
2022-08-05T04:25:56.655Z,20.00
2022-08-05T04:28:17.124Z,20.00
2022-08-05T04:30:45.120Z,20.00
2022-08-05T04:33:12.639Z,20.00
2022-08-05T04:36:11.128Z,20.00
2022-08-05T04:38:39.248Z,19.90
2022-08-05T04:41:09.607Z,19.90
2022-08-05T04:43:46.631Z,19.90
2022-08-05T04:46:28.143Z,19.90
2022-08-05T04:48:55.454Z,19.80
2022-08-05T04:51:25.862Z,19.80
2022-08-05T04:53:58.436Z,19.70
2022-08-05T04:56:34.325Z,19.70
2022-08-05T04:59:22.093Z,19.70
2022-08-05T05:02:06.928Z,19.70
2022-08-05T05:04:47.789Z,19.70
2022-08-05T05:07:18.092Z,19.70
2022-08-05T05:09:45.816Z,19.60
2022-08-05T05:12:12.815Z,19.60
2022-08-05T05:14:49.146Z,19.60
2022-08-05T05:17:23.506Z,19.50
2022-08-05T05:19:56.454Z,19.50
2022-08-05T05:22:26.551Z,19.50
2022-08-05T05:25:00.374Z,19.50
2022-08-05T05:27:41.294Z,19.50
2022-08-05T05:30:31.542Z,19.60
2022-08-05T05:33:09.162Z,19.60
2022-08-05T05:35:47.739Z,19.60
2022-08-05T05:38:22.497Z,19.60
2022-08-05T05:40:57.248Z,19.60
2022-08-05T05:43:54.583Z,19.70
2022-08-05T05:46:17.530Z,19.80
2022-08-05T05:48:47.936Z,19.80
2022-08-05T05:51:27.881Z,19.80
2022-08-05T05:53:59.631Z,19.80
2022-08-05T05:56:34.562Z,19.80
2022-08-05T05:59:07.729Z,19.80
2022-08-05T06:01:39.708Z,19.80
2022-08-05T06:04:13.181Z,19.70
2022-08-05T06:06:46.687Z,19.80
2022-08-05T06:09:16.948Z,19.80
2022-08-05T06:11:58.963Z,19.80
2022-08-05T06:14:28.033Z,19.80
2022-08-05T06:16:56.920Z,19.90
2022-08-05T06:19:26.035Z,19.90
2022-08-05T06:22:01.364Z,20.20
2022-08-05T06:24:28.209Z,20.80
2022-08-05T06:26:55.472Z,21.40
2022-08-05T06:29:43.225Z,21.90
2022-08-05T06:32:25.531Z,22.60
2022-08-05T06:34:56.196Z,23.00
2022-08-05T06:37:56.163Z,22.90
2022-08-05T06:40:18.249Z,22.90
2022-08-05T06:42:51.935Z,22.80
2022-08-05T06:45:44.580Z,22.60
2022-08-05T06:48:44.067Z,22.30
2022-08-05T06:50:55.808Z,22.20
2022-08-05T06:53:28.639Z,22.20
2022-08-05T06:56:00.474Z,22.50
2022-08-05T06:58:35.369Z,23.10
2022-08-05T07:01:07.493Z,23.90
2022-08-05T07:03:34.984Z,24.80
2022-08-05T07:06:06.178Z,25.40
2022-08-05T07:08:47.906Z,26.10
2022-08-05T07:11:22.005Z,26.30
2022-08-05T07:14:20.045Z,26.80
2022-08-05T07:17:58.777Z,27.50
2022-08-05T07:22:34.273Z,28.30
2022-08-05T07:25:09.484Z,28.70
2022-08-05T07:27:58.445Z,28.70
2022-08-05T07:30:38.753Z,28.90
2022-08-05T07:33:16.837Z,29.30
2022-08-05T07:36:04.783Z,29.40
2022-08-05T07:38:43.684Z,29.50
2022-08-05T07:42:13.377Z,29.60
2022-08-05T07:44:06.548Z,29.50
2022-08-05T07:46:41.534Z,29.80
2022-08-05T07:49:15.281Z,30.10
2022-08-05T07:51:54.593Z,30.50
2022-08-05T07:54:30.721Z,30.10
2022-08-05T07:57:18.148Z,30.20
2022-08-05T07:59:49.238Z,30.00
2022-08-05T08:02:17.822Z,30.00
2022-08-05T08:04:47.468Z,30.50
2022-08-05T08:07:15.081Z,30.80
2022-08-05T08:09:43.007Z,30.70
2022-08-05T08:12:27.208Z,30.20
2022-08-05T08:14:57.342Z,30.00
2022-08-05T08:17:30.368Z,29.80
2022-08-05T08:20:22.669Z,29.50
2022-08-05T08:22:50.988Z,29.30
2022-08-05T08:25:18.275Z,29.20
2022-08-05T08:27:55.247Z,29.10
2022-08-05T08:30:32.410Z,29.00
2022-08-05T08:33:13.802Z,28.90
2022-08-05T08:35:52.946Z,28.80
2022-08-05T08:38:32.221Z,28.70
2022-08-05T08:41:08.501Z,28.70
2022-08-05T08:45:25.033Z,28.90
2022-08-05T08:46:27.962Z,29.10
2022-08-05T08:49:08.003Z,29.30
2022-08-05T08:52:02.874Z,29.50
2022-08-05T08:54:32.670Z,29.60
2022-08-05T08:57:00.524Z,29.50
2022-08-05T08:59:33.594Z,29.20
2022-08-05T09:02:08.719Z,29.10
2022-08-05T09:04:58.497Z,28.60
2022-08-05T09:07:39.756Z,28.60
2022-08-05T09:10:22.366Z,28.50
2022-08-05T09:12:55.853Z,28.20
2022-08-05T09:15:23.493Z,27.80
2022-08-05T09:17:52.898Z,27.50
2022-08-05T09:20:36.745Z,27.30
2022-08-05T09:23:19.220Z,27.10
2022-08-05T09:26:11.563Z,26.80
2022-08-05T09:28:48.757Z,26.30
2022-08-05T09:31:44.008Z,26.20
2022-08-05T09:34:09.653Z,26.00
2022-08-05T09:36:56.036Z,25.80
2022-08-05T09:39:39.453Z,25.50
2022-08-05T09:42:24.151Z,25.30
2022-08-05T09:44:57.472Z,25.10
2022-08-05T09:47:55.457Z,25.00
2022-08-05T09:50:38.134Z,24.90
2022-08-05T09:53:13.073Z,24.60
2022-08-05T09:56:03.930Z,24.50
2022-08-05T09:58:38.226Z,24.40
2022-08-05T10:01:15.197Z,24.30
2022-08-05T10:04:10.671Z,24.30
2022-08-05T10:06:49.793Z,24.10
2022-08-05T10:09:28.157Z,24.10
2022-08-05T10:12:18.916Z,24.00
2022-08-05T10:15:20.472Z,23.90
2022-08-05T10:18:22.508Z,23.80
2022-08-05T10:20:54.775Z,23.70
2022-08-05T10:23:55.747Z,23.70
2022-08-05T10:26:19.628Z,23.70
2022-08-05T10:28:58.542Z,23.60
2022-08-05T10:32:53.219Z,23.60
2022-08-05T10:34:12.467Z,23.70
2022-08-05T10:36:41.749Z,23.70
2022-08-05T10:40:03.175Z,23.80
2022-08-05T10:42:34.338Z,23.80
2022-08-05T10:45:21.467Z,23.90
2022-08-05T10:48:29.127Z,23.80
2022-08-05T10:51:21.671Z,23.90
2022-08-05T10:53:58.386Z,24.00
2022-08-05T10:56:43.774Z,24.20
2022-08-05T11:00:03.257Z,24.50
2022-08-05T11:02:14.067Z,24.60
2022-08-05T11:05:05.762Z,24.80
2022-08-05T11:08:02.710Z,25.00
2022-08-05T11:10:27.388Z,24.90
2022-08-05T11:12:56.995Z,25.10
2022-08-05T11:16:00.026Z,25.30
2022-08-05T11:18:34.793Z,25.40
2022-08-05T11:21:06.363Z,25.50
2022-08-05T11:24:29.996Z,25.60
2022-08-05T11:27:37.016Z,25.50
2022-08-05T11:30:18.537Z,25.50
2022-08-05T11:32:47.925Z,25.70
2022-08-05T11:36:07.432Z,25.90
2022-08-05T11:38:45.992Z,26.10
2022-08-05T11:41:58.304Z,26.30
2022-08-05T11:44:21.553Z,26.40
2022-08-05T11:47:10.474Z,26.50
2022-08-05T11:49:42.960Z,26.60
2022-08-05T11:52:11.281Z,26.70
2022-08-05T11:54:41.538Z,26.50
2022-08-05T11:57:24.427Z,26.50
2022-08-05T11:59:53.251Z,26.50
2022-08-05T12:02:30.335Z,26.40
2022-08-05T12:04:59.955Z,26.30
2022-08-05T12:08:03.732Z,26.20
2022-08-05T12:10:24.950Z,26.30
2022-08-05T12:13:15.491Z,26.30
2022-08-05T12:15:49.842Z,26.40
2022-08-05T12:18:32.986Z,26.40
2022-08-05T12:21:32.148Z,26.50
2022-08-05T12:24:04.496Z,26.60
2022-08-05T12:26:44.131Z,26.70
2022-08-05T12:29:23.083Z,26.70
2022-08-05T12:31:55.741Z,26.70
2022-08-05T12:34:28.709Z,26.80
2022-08-05T12:37:10.896Z,26.80
2022-08-05T12:39:51.136Z,26.90
2022-08-05T12:42:20.779Z,27.00
2022-08-05T12:44:48.118Z,27.10
2022-08-05T12:47:28.686Z,27.20
2022-08-05T12:50:03.628Z,27.30
2022-08-05T12:52:38.861Z,27.20
2022-08-05T12:55:22.602Z,27.20
2022-08-05T12:58:48.592Z,27.30
2022-08-05T13:02:02.288Z,27.20
2022-08-05T13:03:42.155Z,27.40
2022-08-05T13:06:19.893Z,27.00
2022-08-05T13:08:51.847Z,27.00
2022-08-05T13:11:25.545Z,27.00
2022-08-05T13:14:24.763Z,27.10
2022-08-05T13:17:02.959Z,27.00
2022-08-05T13:19:50.922Z,27.00
2022-08-05T13:22:28.025Z,27.10
2022-08-05T13:25:00.870Z,26.90
2022-08-05T13:28:00.452Z,26.80
2022-08-05T13:30:51.270Z,26.50
2022-08-05T13:34:21.144Z,26.50
2022-08-05T13:36:10.653Z,26.40
2022-08-05T13:38:38.413Z,26.40
2022-08-05T13:41:10.931Z,26.30
2022-08-05T13:43:44.020Z,26.20
2022-08-05T13:46:14.279Z,26.30
2022-08-05T13:48:58.582Z,26.20
2022-08-05T13:51:36.673Z,26.00
2022-08-05T13:54:12.321Z,26.10
2022-08-05T13:56:50.475Z,26.00
2022-08-05T13:59:24.178Z,26.10
2022-08-05T14:01:58.862Z,26.20
2022-08-05T14:04:51.808Z,26.20
2022-08-05T14:07:25.822Z,26.30
2022-08-05T14:10:18.880Z,26.50
2022-08-05T14:12:55.447Z,26.50
2022-08-05T14:16:05.143Z,26.40
2022-08-05T14:18:17.874Z,26.30
2022-08-05T14:20:54.788Z,26.30
2022-08-05T14:23:25.603Z,26.10
2022-08-05T14:25:58.629Z,26.20
2022-08-05T14:28:28.812Z,26.20
2022-08-05T14:31:00.451Z,25.90
2022-08-05T14:33:27.919Z,25.80
2022-08-05T14:36:14.781Z,25.70
2022-08-05T14:38:42.567Z,25.70
2022-08-05T14:41:11.575Z,25.70
2022-08-05T14:43:59.160Z,25.60
2022-08-05T14:46:30.606Z,25.40
2022-08-05T14:49:06.619Z,25.40
2022-08-05T14:51:37.538Z,25.30
2022-08-05T14:54:28.081Z,25.20
2022-08-05T14:56:54.699Z,25.20
2022-08-05T14:59:22.033Z,25.10
2022-08-05T15:01:50.053Z,25.00
2022-08-05T15:04:20.459Z,24.90
2022-08-05T15:06:49.750Z,25.00
2022-08-05T15:09:52.463Z,25.00
2022-08-05T15:12:16.296Z,25.00
2022-08-05T15:14:49.732Z,24.90
2022-08-05T15:17:46.549Z,24.70
2022-08-05T15:20:18.872Z,24.70
2022-08-05T15:22:54.424Z,24.60
2022-08-05T15:25:51.219Z,24.40
2022-08-05T15:28:13.295Z,24.30
2022-08-05T15:30:43.674Z,24.40
2022-08-05T15:33:13.357Z,24.50
2022-08-05T15:36:00.179Z,24.60
2022-08-05T15:38:35.992Z,24.70
2022-08-05T15:41:20.328Z,24.70
2022-08-05T15:43:50.590Z,24.60
2022-08-05T15:46:20.681Z,24.50
2022-08-05T15:48:52.725Z,24.50
2022-08-05T15:52:04.137Z,24.50
2022-08-05T15:54:17.387Z,24.50
2022-08-05T15:56:44.374Z,24.50
2022-08-05T15:59:22.302Z,24.40
2022-08-05T16:01:52.257Z,24.40
2022-08-05T16:04:25.444Z,24.40
2022-08-05T16:06:55.738Z,24.40
2022-08-05T16:09:24.307Z,24.50
2022-08-05T16:11:53.214Z,24.40
2022-08-05T16:14:22.370Z,24.40
2022-08-05T16:16:50.325Z,24.40
2022-08-05T16:19:19.207Z,24.40
2022-08-05T16:22:05.390Z,24.30
2022-08-05T16:24:39.600Z,24.30
2022-08-05T16:27:09.040Z,24.10
2022-08-05T16:29:37.538Z,24.10
2022-08-05T16:32:06.550Z,24.10
2022-08-05T16:34:37.039Z,24.00
2022-08-05T16:37:15.419Z,23.90
2022-08-05T16:40:06.026Z,23.80
2022-08-05T16:42:35.127Z,23.80
2022-08-05T16:45:06.225Z,23.70
2022-08-05T16:47:54.320Z,23.60
2022-08-05T16:50:24.396Z,23.50
2022-08-05T16:52:51.431Z,23.50
2022-08-05T16:55:20.429Z,23.50
2022-08-05T16:57:53.535Z,23.50
2022-08-05T17:00:34.407Z,23.50
2022-08-05T17:03:13.294Z,23.50
2022-08-05T17:05:42.945Z,23.50
2022-08-05T17:08:10.123Z,23.50
2022-08-05T17:10:40.553Z,23.50
2022-08-05T17:13:16.742Z,23.30
2022-08-05T17:15:44.806Z,23.30
2022-08-05T17:18:15.905Z,23.20
2022-08-05T17:20:44.227Z,23.20
2022-08-05T17:24:05.653Z,23.10
2022-08-05T17:25:59.488Z,23.00
2022-08-05T17:28:26.518Z,22.90
2022-08-05T17:30:55.826Z,22.80
2022-08-05T17:33:23.126Z,22.70
2022-08-05T17:36:08.453Z,22.60
2022-08-05T17:38:37.188Z,22.50
2022-08-05T17:41:07.233Z,22.40
2022-08-05T17:43:53.375Z,22.30
2022-08-05T17:46:21.361Z,22.20
2022-08-05T17:48:48.365Z,22.10
2022-08-05T17:51:21.925Z,22.10
2022-08-05T17:53:54.513Z,22.00
2022-08-05T17:56:22.658Z,21.90
2022-08-05T17:58:49.946Z,21.80
2022-08-05T18:01:18.727Z,21.80
2022-08-05T18:03:58.642Z,21.80
2022-08-05T18:06:31.082Z,21.70
2022-08-05T18:08:58.561Z,21.70
2022-08-05T18:11:33.163Z,21.60
2022-08-05T18:14:07.124Z,21.60
2022-08-05T18:16:51.468Z,21.50
2022-08-05T18:19:23.338Z,21.40
2022-08-05T18:22:09.568Z,21.40
2022-08-05T18:24:39.582Z,21.30
2022-08-05T18:27:18.254Z,21.30
2022-08-05T18:29:53.693Z,21.30
2022-08-05T18:32:21.861Z,21.20
2022-08-05T18:34:56.037Z,21.10
2022-08-05T18:37:33.440Z,21.10
2022-08-05T18:41:03.119Z,21.10
2022-08-05T18:42:48.861Z,21.00
2022-08-05T18:45:15.852Z,21.00
2022-08-05T18:47:42.753Z,20.90
2022-08-05T18:50:42.293Z,20.90
2022-08-05T18:53:19.255Z,20.80
2022-08-05T18:55:49.683Z,20.80
2022-08-05T18:58:16.687Z,20.80
2022-08-05T19:00:43.801Z,20.70
2022-08-05T19:03:15.245Z,20.70
2022-08-05T19:06:11.531Z,20.70
2022-08-05T19:08:30.777Z,20.60
2022-08-05T19:10:59.571Z,20.50
2022-08-05T19:13:35.943Z,20.50
2022-08-05T19:16:05.771Z,20.40
2022-08-05T19:18:53.250Z,20.30
2022-08-05T19:21:23.364Z,20.30
2022-08-05T19:24:06.876Z,20.20
2022-08-05T19:26:36.336Z,20.20
2022-08-05T19:29:23.815Z,20.10
2022-08-05T19:31:57.361Z,20.00
2022-08-05T19:34:25.626Z,19.90
2022-08-05T19:36:53.209Z,19.90
2022-08-05T19:39:20.225Z,19.80
2022-08-05T19:42:07.272Z,19.80
2022-08-05T19:44:44.547Z,19.70
2022-08-05T19:47:15.241Z,19.70
2022-08-05T19:49:44.671Z,19.60
2022-08-05T19:52:30.281Z,19.60
2022-08-05T19:54:58.225Z,19.50
2022-08-05T19:57:47.675Z,19.50
2022-08-05T20:00:14.889Z,19.50
2022-08-05T20:02:41.800Z,19.50
2022-08-05T20:05:16.569Z,19.40
2022-08-05T20:07:55.026Z,19.40
2022-08-05T20:10:25.134Z,19.40
2022-08-05T20:12:52.208Z,19.40
2022-08-05T20:15:23.066Z,19.30
2022-08-05T20:18:10.709Z,19.20
2022-08-05T20:20:57.040Z,19.20
2022-08-05T20:23:40.657Z,19.20
2022-08-05T20:26:15.309Z,19.10
2022-08-05T20:28:48.018Z,19.10
2022-08-05T20:31:16.673Z,19.00
2022-08-05T20:33:44.992Z,19.00
2022-08-05T20:36:14.190Z,18.90
2022-08-05T20:38:53.993Z,18.90
2022-08-05T20:41:27.448Z,18.90
2022-08-05T20:44:19.037Z,18.80
2022-08-05T20:46:59.241Z,18.80
2022-08-05T20:49:26.880Z,18.80
2022-08-05T20:51:55.439Z,18.80
2022-08-05T20:54:43.288Z,18.70
2022-08-05T20:57:15.130Z,18.70
2022-08-05T21:00:21.296Z,18.70
2022-08-05T21:02:54.519Z,18.60
2022-08-05T21:05:24.092Z,18.60
2022-08-05T21:07:52.117Z,18.50
2022-08-05T21:10:20.294Z,18.50
2022-08-05T21:12:57.754Z,18.50
2022-08-05T21:15:33.907Z,18.40
2022-08-05T21:18:01.198Z,18.40
2022-08-05T21:20:33.378Z,18.30
2022-08-05T21:23:01.491Z,18.30
2022-08-05T21:25:33.752Z,18.30
2022-08-05T21:28:03.188Z,18.30
2022-08-05T21:30:31.470Z,18.20
2022-08-05T21:32:58.682Z,18.20
2022-08-05T21:35:30.122Z,18.20
2022-08-05T21:38:10.824Z,18.20
2022-08-05T21:40:39.483Z,18.20
2022-08-05T21:43:08.506Z,18.10
2022-08-05T21:45:56.181Z,18.10
2022-08-05T21:48:24.942Z,18.10
2022-08-05T21:50:54.163Z,18.00
2022-08-05T21:53:21.879Z,18.00
2022-08-05T21:56:05.295Z,18.00
2022-08-05T21:58:42.422Z,17.90
2022-08-05T22:01:24.015Z,17.90
2022-08-05T22:03:53.660Z,17.90
2022-08-05T22:06:22.995Z,17.90
2022-08-05T22:09:13.751Z,17.90
2022-08-05T22:11:43.134Z,17.90
2022-08-05T22:14:34.553Z,17.80
2022-08-05T22:17:03.871Z,17.80
2022-08-05T22:20:01.661Z,17.80
2022-08-05T22:22:26.936Z,17.80
2022-08-05T22:25:21.678Z,17.70
2022-08-05T22:28:10.602Z,17.70
2022-08-05T22:30:56.033Z,17.70
2022-08-05T22:33:57.227Z,17.70
2022-08-05T22:36:15.725Z,17.60
2022-08-05T22:38:47.981Z,17.60
2022-08-05T22:42:04.316Z,17.60
2022-08-05T22:44:07.863Z,17.50
2022-08-05T22:46:39.876Z,17.50
2022-08-05T22:49:23.551Z,17.50
2022-08-05T22:52:05.945Z,17.40
2022-08-05T22:54:38.911Z,17.40
2022-08-05T22:57:06.953Z,17.30
2022-08-05T22:59:43.749Z,17.30
2022-08-05T23:02:17.364Z,17.30
2022-08-05T23:04:51.921Z,17.30
2022-08-05T23:07:22.262Z,17.30
2022-08-05T23:09:58.004Z,17.20
2022-08-05T23:12:32.700Z,17.20
2022-08-05T23:15:09.040Z,17.20
2022-08-05T23:17:59.731Z,17.20
2022-08-05T23:20:24.580Z,17.10
2022-08-05T23:22:55.615Z,17.10
2022-08-05T23:25:52.254Z,17.10
2022-08-05T23:28:11.186Z,17.10
2022-08-05T23:30:43.734Z,17.00
2022-08-05T23:33:15.990Z,17.00
2022-08-05T23:35:45.927Z,17.00
2022-08-05T23:38:12.820Z,17.00
2022-08-05T23:40:42.384Z,17.00
2022-08-05T23:43:25.299Z,16.90
2022-08-05T23:46:03.636Z,16.90
2022-08-05T23:48:30.517Z,16.90
2022-08-05T23:50:57.363Z,16.90
2022-08-05T23:53:28.474Z,16.80
2022-08-05T23:56:12.571Z,16.80
2022-08-05T23:58:47.101Z,16.80
